Time;durP1;ratioP1;P1;durP2;ratioP2;P2;SDS_P1;SDS_P2;PMS_P1;PMS_P2;Temp;Humidity;BMP_temperature;BMP_pressure;BME280_temperature;BME280_humidity;BME280_pressure;Samples;Min_cycle;Max_cycle;Signal;HPM_P1;HPM_P2
2023/08/02 00:02:08;;;;;;;9.13;6.72;;;15.70;99.90;;;;;;5039839;28;20021;-80
2023/08/02 00:04:33;;;;;;;11.98;8.20;;;15.70;99.90;;;;;;5047626;28;20486;-81
2023/08/02 00:07:01;;;;;;;11.10;7.13;;;15.70;99.90;;;;;;5055260;28;20079;-81
2023/08/02 00:09:27;;;;;;;8.80;7.20;;;15.70;99.90;;;;;;5038200;28;20079;-82
2023/08/02 00:11:53;;;;;;;16.17;7.80;;;15.70;99.90;;;;;;5042368;28;20029;-81
2023/08/02 00:14:19;;;;;;;9.20;7.43;;;15.70;99.90;;;;;;5067162;28;20021;-81
2023/08/02 00:16:44;;;;;;;19.00;8.38;;;15.70;99.90;;;;;;5054395;28;20058;-81
2023/08/02 00:19:10;;;;;;;10.10;7.15;;;15.70;99.90;;;;;;5055703;28;20036;-82
2023/08/02 00:21:35;;;;;;;7.43;6.32;;;15.60;99.90;;;;;;5055870;28;20108;-81
2023/08/02 00:24:01;;;;;;;8.93;6.65;;;15.60;99.90;;;;;;5060339;28;20032;-81
2023/08/02 00:26:28;;;;;;;9.95;6.65;;;15.60;99.90;;;;;;5036679;28;20084;-82
2023/08/02 00:28:53;;;;;;;13.82;7.30;;;15.60;99.90;;;;;;5049803;28;20025;-80
2023/08/02 00:31:19;;;;;;;15.85;8.43;;;15.60;99.90;;;;;;5055720;28;20099;-82
2023/08/02 00:33:45;;;;;;;8.88;6.63;;;15.60;99.90;;;;;;5053704;28;20520;-81
2023/08/02 00:36:10;;;;;;;10.52;7.47;;;15.60;99.90;;;;;;5053956;28;20363;-82
2023/08/02 00:38:36;;;;;;;10.80;7.70;;;15.60;99.90;;;;;;5058603;28;20025;-81
2023/08/02 00:41:06;;;;;;;13.43;8.05;;;15.60;99.90;;;;;;5055125;28;20474;-82
2023/08/02 00:43:43;;;;;;;9.25;7.22;;;15.60;99.90;;;;;;5053579;28;20031;-81
2023/08/02 00:46:10;;;;;;;14.38;7.65;;;15.60;99.90;;;;;;5055061;28;20037;-82
2023/08/02 00:48:36;;;;;;;12.48;7.47;;;15.60;99.90;;;;;;5055010;28;20036;-82
2023/08/02 00:51:03;;;;;;;10.82;7.55;;;15.70;99.90;;;;;;5053403;28;20051;-82
2023/08/02 00:53:29;;;;;;;13.68;8.18;;;15.70;99.90;;;;;;5053021;28;20027;-82
2023/08/02 00:55:56;;;;;;;12.38;8.13;;;15.70;99.90;;;;;;5053820;28;20017;-81
2023/08/02 00:58:21;;;;;;;10.10;7.25;;;15.70;99.90;;;;;;5053335;28;20025;-82
2023/08/02 01:00:47;;;;;;;14.23;8.40;;;15.70;99.90;;;;;;5052917;28;20028;-80
2023/08/02 01:03:13;;;;;;;11.30;8.00;;;15.70;99.90;;;;;;5053195;28;20398;-81
2023/08/02 01:05:58;;;;;;;17.45;8.07;;;15.60;99.90;;;;;;5053428;28;20040;-81
2023/08/02 01:08:33;;;;;;;13.30;8.63;;;15.70;99.90;;;;;;5054860;28;20055;-81
2023/08/02 01:11:08;;;;;;;15.30;9.52;;;15.60;99.90;;;;;;5053479;28;20108;-81
2023/08/02 01:13:39;;;;;;;12.20;8.45;;;15.60;99.90;;;;;;5053094;28;20541;-81
2023/08/02 01:16:06;;;;;;;10.23;8.07;;;15.60;99.90;;;;;;5053134;28;20505;-81
2023/08/02 01:18:32;;;;;;;11.90;7.50;;;15.60;99.90;;;;;;5054388;28;20025;-81
2023/08/02 01:20:57;;;;;;;15.23;8.63;;;15.50;99.90;;;;;;5050972;28;20099;-80
2023/08/02 01:23:23;;;;;;;13.88;9.48;;;15.50;99.90;;;;;;5050064;28;20151;-81
2023/08/02 01:25:51;;;;;;;12.60;8.35;;;15.50;99.90;;;;;;5046797;28;20063;-81
2023/08/02 01:28:23;;;;;;;11.00;7.18;;;15.50;99.90;;;;;;5052950;28;20033;-81
2023/08/02 01:30:50;;;;;;;16.55;8.48;;;15.50;99.90;;;;;;5053241;28;20486;-81
2023/08/02 01:33:17;;;;;;;14.20;8.55;;;15.40;99.90;;;;;;5052906;28;20043;-81
2023/08/02 01:35:42;;;;;;;16.50;8.43;;;15.40;99.90;;;;;;5047738;28;20025;-81
2023/08/02 01:38:08;;;;;;;13.30;8.75;;;15.40;99.90;;;;;;5045235;28;20027;-81
2023/08/02 01:40:34;;;;;;;13.25;8.98;;;15.30;99.90;;;;;;5033058;28;20018;-81
2023/08/02 01:42:59;;;;;;;13.38;8.50;;;15.30;99.90;;;;;;5050951;28;20036;-80
2023/08/02 01:45:25;;;;;;;14.73;9.32;;;15.30;99.90;;;;;;5052837;28;20120;-81
2023/08/02 01:47:51;;;;;;;14.70;9.25;;;15.30;99.90;;;;;;5053687;28;20662;-80
2023/08/02 01:50:17;;;;;;;13.30;8.05;;;15.30;99.90;;;;;;5052324;28;20013;-81
2023/08/02 01:52:43;;;;;;;12.82;8.50;;;15.30;99.90;;;;;;5052738;28;20086;-80
2023/08/02 01:55:08;;;;;;;15.63;8.85;;;15.30;99.90;;;;;;5052927;28;20025;-80
2023/08/02 01:57:34;;;;;;;14.90;8.30;;;15.30;99.90;;;;;;5032610;28;20025;-80
2023/08/02 02:00:00;;;;;;;24.70;10.32;;;15.30;99.90;;;;;;5052101;28;20032;-81
2023/08/02 02:02:25;;;;;;;16.02;9.05;;;15.30;99.90;;;;;;5053472;28;20118;-81
2023/08/02 02:04:51;;;;;;;27.20;10.65;;;15.20;99.90;;;;;;5052615;28;20059;-80
2023/08/02 02:07:17;;;;;;;18.50;10.00;;;15.20;99.90;;;;;;5053742;28;20100;-79
2023/08/02 02:09:42;;;;;;;16.58;10.20;;;15.20;99.90;;;;;;5052233;28;20028;-80
2023/08/02 02:12:08;;;;;;;15.45;10.05;;;15.20;99.90;;;;;;5053645;28;20090;-81
2023/08/02 02:14:34;;;;;;;13.45;9.50;;;15.20;99.90;;;;;;5051774;28;20027;-80
2023/08/02 02:16:59;;;;;;;14.82;10.32;;;15.20;99.90;;;;;;5048349;28;20061;-80
2023/08/02 02:19:25;;;;;;;20.83;11.43;;;15.20;99.90;;;;;;5053126;28;20021;-81
2023/08/02 02:21:50;;;;;;;16.30;10.98;;;15.20;99.90;;;;;;5052044;28;20071;-80
2023/08/02 02:24:16;;;;;;;16.75;11.10;;;15.30;99.90;;;;;;5053128;28;20490;-80
2023/08/02 02:26:42;;;;;;;20.23;12.18;;;15.20;99.90;;;;;;5053140;28;20069;-82
2023/08/02 02:29:07;;;;;;;18.55;11.90;;;15.30;99.90;;;;;;5047685;28;20506;-81
2023/08/02 02:31:33;;;;;;;16.08;10.95;;;15.20;99.90;;;;;;5046756;28;20029;-80
2023/08/02 02:33:58;;;;;;;15.35;11.38;;;15.20;99.90;;;;;;5052768;28;20021;-82
2023/08/02 02:36:24;;;;;;;21.65;11.07;;;15.30;99.90;;;;;;5053163;28;20055;-80
2023/08/02 02:38:49;;;;;;;19.08;11.77;;;15.30;99.90;;;;;;5051453;28;20485;-82
2023/08/02 02:41:15;;;;;;;21.75;12.00;;;15.30;99.90;;;;;;5051589;28;20023;-81
2023/08/02 02:43:41;;;;;;;18.85;10.43;;;15.30;99.90;;;;;;5053044;28;20079;-81
2023/08/02 02:46:06;;;;;;;19.40;12.40;;;15.30;99.90;;;;;;5052163;28;20040;-80
2023/08/02 02:48:32;;;;;;;20.00;12.57;;;15.30;99.90;;;;;;5052685;28;20013;-81
2023/08/02 02:50:57;;;;;;;21.23;13.07;;;15.30;99.90;;;;;;5052674;28;20048;-80
2023/08/02 02:53:23;;;;;;;20.35;12.57;;;15.30;99.90;;;;;;5052899;28;20031;-81
2023/08/02 02:55:51;;;;;;;19.88;13.23;;;15.30;99.90;;;;;;5052721;28;20020;-81
2023/08/02 02:58:17;;;;;;;18.73;13.05;;;15.30;99.90;;;;;;5052471;28;20043;-81
2023/08/02 03:00:43;;;;;;;20.58;12.50;;;15.30;99.90;;;;;;5048347;28;20029;-81
2023/08/02 03:03:08;;;;;;;20.15;12.88;;;15.30;99.90;;;;;;5051086;28;20494;-81
2023/08/02 03:05:34;;;;;;;22.90;12.48;;;15.30;99.90;;;;;;5050633;28;20486;-81
2023/08/02 03:08:00;;;;;;;17.95;12.15;;;15.30;99.90;;;;;;5052399;28;20462;-81
2023/08/02 03:10:25;;;;;;;25.42;14.40;;;15.30;99.90;;;;;;5051495;28;20021;-81
2023/08/02 03:12:51;;;;;;;22.80;13.88;;;15.30;99.90;;;;;;5052309;28;20037;-80
2023/08/02 03:15:16;;;;;;;23.33;15.77;;;15.30;99.90;;;;;;5052733;28;20119;-81
2023/08/02 03:17:42;;;;;;;25.38;15.82;;;15.30;99.90;;;;;;5050878;28;20017;-81
2023/08/02 03:20:08;;;;;;;23.08;14.50;;;15.30;99.90;;;;;;5050833;28;20055;-81
2023/08/02 03:22:33;;;;;;;20.90;14.85;;;15.40;99.90;;;;;;5052513;28;20056;-81
2023/08/02 03:24:59;;;;;;;24.35;14.88;;;15.40;99.90;;;;;;5052430;28;20029;-81
2023/08/02 03:27:25;;;;;;;21.20;15.05;;;15.40;99.90;;;;;;5052152;28;20079;-81
2023/08/02 03:29:50;;;;;;;27.45;16.88;;;15.40;99.90;;;;;;5052365;28;20048;-82
2023/08/02 03:32:16;;;;;;;26.60;16.58;;;15.40;99.90;;;;;;5052301;28;20048;-81
2023/08/02 03:34:41;;;;;;;24.10;16.55;;;15.30;99.90;;;;;;5052418;28;20440;-82
2023/08/02 03:37:07;;;;;;;24.70;18.05;;;15.30;99.90;;;;;;5051871;28;20051;-81
2023/08/02 03:39:33;;;;;;;28.58;17.83;;;15.40;99.90;;;;;;5050926;28;20031;-81
2023/08/02 03:41:58;;;;;;;24.70;16.42;;;15.40;99.90;;;;;;5042661;28;20030;-81
2023/08/02 03:44:24;;;;;;;30.27;17.58;;;15.30;99.90;;;;;;5040593;28;20041;-81
2023/08/02 03:46:49;;;;;;;27.88;16.38;;;15.40;99.90;;;;;;5047222;28;20481;-81
2023/08/02 03:49:15;;;;;;;26.35;16.17;;;15.40;99.90;;;;;;5050706;28;20021;-80
2023/08/02 03:51:41;;;;;;;24.67;16.60;;;15.30;99.90;;;;;;5050929;28;20067;-81
2023/08/02 03:54:08;;;;;;;24.85;15.63;;;15.30;99.90;;;;;;5050578;28;20024;-81
2023/08/02 03:56:33;;;;;;;26.38;15.32;;;15.30;99.90;;;;;;5050490;28;20017;-82
2023/08/02 03:58:59;;;;;;;24.65;16.23;;;15.30;99.90;;;;;;5050796;28;20027;-81
2023/08/02 04:01:24;;;;;;;29.60;17.10;;;15.30;99.90;;;;;;5042400;28;20044;-81
2023/08/02 04:03:50;;;;;;;29.48;18.95;;;15.30;99.90;;;;;;5047022;28;20053;-81
2023/08/02 04:06:16;;;;;;;28.45;17.63;;;15.20;99.90;;;;;;5050215;28;20048;-81
2023/08/02 04:08:41;;;;;;;32.70;16.98;;;15.30;99.90;;;;;;5050961;28;20028;-81
2023/08/02 04:11:07;;;;;;;27.35;17.98;;;15.20;99.90;;;;;;5051720;28;20033;-81
2023/08/02 04:13:33;;;;;;;35.95;20.30;;;15.20;99.90;;;;;;5050861;28;20432;-81
2023/08/02 04:15:58;;;;;;;33.03;18.73;;;15.20;99.90;;;;;;5046309;28;20022;-81
2023/08/02 04:18:24;;;;;;;31.98;19.83;;;15.10;99.90;;;;;;5043359;28;20024;-81
2023/08/02 04:20:50;;;;;;;33.88;19.40;;;15.10;99.90;;;;;;5051828;28;20044;-81
2023/08/02 04:23:15;;;;;;;33.08;19.42;;;15.10;99.90;;;;;;5051887;28;20163;-81
2023/08/02 04:25:41;;;;;;;34.72;19.83;;;15.10;99.90;;;;;;5052106;28;20041;-81
2023/08/02 04:28:06;;;;;;;34.80;20.52;;;15.10;99.90;;;;;;5052354;28;20124;-81
2023/08/02 04:30:32;;;;;;;33.70;20.55;;;15.10;99.90;;;;;;5039777;28;20025;-81
2023/08/02 04:32:58;;;;;;;34.90;20.33;;;15.10;99.90;;;;;;5051010;28;20033;-81
2023/08/02 04:35:24;;;;;;;29.45;18.45;;;15.10;99.90;;;;;;5055355;28;20021;-82
2023/08/02 04:37:49;;;;;;;44.30;19.60;;;15.10;99.90;;;;;;5054765;28;20470;-81
2023/08/02 04:40:15;;;;;;;39.33;20.48;;;15.10;99.90;;;;;;5054085;28;20391;-81
2023/08/02 04:42:41;;;;;;;36.05;21.70;;;15.00;99.90;;;;;;5055222;28;20067;-82
2023/08/02 04:45:08;;;;;;;36.13;23.58;;;15.00;99.90;;;;;;5053773;28;20044;-82
2023/08/02 04:47:33;;;;;;;30.20;19.60;;;15.00;99.90;;;;;;5054850;28;20021;-81
2023/08/02 04:50:00;;;;;;;34.45;21.67;;;15.00;99.90;;;;;;5053685;28;20466;-81
2023/08/02 04:52:25;;;;;;;34.40;20.20;;;15.00;99.90;;;;;;5053499;28;20127;-81
2023/08/02 04:54:51;;;;;;;36.15;21.70;;;15.00;99.90;;;;;;5053517;28;20120;-81
2023/08/02 04:57:16;;;;;;;43.83;23.17;;;15.00;99.90;;;;;;5041383;28;20026;-81
2023/08/02 04:59:42;;;;;;;40.83;23.40;;;15.10;99.90;;;;;;5054663;28;20450;-82
2023/08/02 05:02:07;;;;;;;39.95;24.23;;;15.20;99.90;;;;;;5054789;28;20071;-82
2023/08/02 05:04:33;;;;;;;56.20;32.95;;;15.20;99.90;;;;;;5053417;28;20076;-81
2023/08/02 05:06:59;;;;;;;64.78;38.75;;;15.20;99.90;;;;;;5054750;28;20070;-80
2023/08/02 05:09:24;;;;;;;64.75;38.08;;;15.20;99.90;;;;;;5053233;28;20025;-81
2023/08/02 05:11:50;;;;;;;83.22;53.35;;;15.20;99.90;;;;;;5055007;28;20021;-81
2023/08/02 05:14:15;;;;;;;63.70;44.50;;;15.20;99.90;;;;;;5054564;28;20033;-80
2023/08/02 05:16:41;;;;;;;57.30;36.22;;;15.30;99.90;;;;;;5052481;28;20020;-81
2023/08/02 05:19:07;;;;;;;53.95;31.27;;;15.30;99.90;;;;;;5046175;28;20025;-81
2023/08/02 05:21:33;;;;;;;44.25;27.13;;;15.40;99.90;;;;;;5048255;28;20017;-80
2023/08/02 05:23:58;;;;;;;41.05;26.48;;;15.50;99.90;;;;;;5052981;28;20016;-81
2023/08/02 05:26:24;;;;;;;44.20;26.55;;;15.70;99.90;;;;;;5045082;28;20365;-82
2023/08/02 05:28:50;;;;;;;41.45;26.65;;;15.80;99.90;;;;;;5049180;28;20057;-82
2023/08/02 05:31:15;;;;;;;47.53;26.63;;;15.80;99.90;;;;;;5047408;28;20302;-81
2023/08/02 05:33:41;;;;;;;45.22;28.02;;;15.90;99.90;;;;;;5045228;28;21232;-80
2023/08/02 05:36:07;;;;;;;41.92;26.27;;;15.90;99.90;;;;;;5045538;28;20033;-82
2023/08/02 05:38:33;;;;;;;40.88;26.17;;;16.00;99.90;;;;;;5037255;28;20030;-82
2023/08/02 05:41:03;;;;;;;40.60;24.73;;;16.20;99.90;;;;;;5039130;28;20025;-82
2023/08/02 05:43:32;;;;;;;44.40;26.05;;;16.20;99.90;;;;;;5033234;28;20132;-82
2023/08/02 05:45:58;;;;;;;37.30;24.80;;;16.40;99.90;;;;;;5039742;28;20068;-83
2023/08/02 05:48:24;;;;;;;35.25;24.02;;;16.50;99.90;;;;;;5046649;28;20454;-81
2023/08/02 05:50:49;;;;;;;27.40;20.80;;;16.60;99.90;;;;;;5035844;28;20017;-81
2023/08/02 05:53:15;;;;;;;31.40;20.52;;;16.70;99.90;;;;;;5032471;28;20018;-82
2023/08/02 05:55:41;;;;;;;24.17;19.45;;;16.70;99.90;;;;;;5033618;28;20068;-82
2023/08/02 05:58:07;;;;;;;29.20;19.02;;;16.90;99.90;;;;;;5039527;28;20116;-81
2023/08/02 06:00:32;;;;;;;25.55;17.48;;;17.10;99.90;;;;;;5047385;28;20020;-81
2023/08/02 06:02:58;;;;;;;26.20;18.20;;;17.20;99.90;;;;;;5041816;28;20874;-83
2023/08/02 06:05:23;;;;;;;23.73;16.17;;;17.40;99.90;;;;;;5048790;28;20043;-82
2023/08/02 06:07:49;;;;;;;22.75;17.33;;;17.40;99.90;;;;;;5048589;28;20021;-82
2023/08/02 06:10:15;;;;;;;22.38;17.00;;;17.50;99.90;;;;;;5052247;28;20021;-83
2023/08/02 06:12:40;;;;;;;21.58;16.50;;;17.60;99.90;;;;;;5041565;28;20074;-82
2023/08/02 06:15:07;;;;;;;16.52;13.55;;;17.60;99.90;;;;;;5039142;28;20031;-82
2023/08/02 06:17:33;;;;;;;19.35;15.27;;;17.70;99.90;;;;;;5042558;28;20021;-82
2023/08/02 06:19:59;;;;;;;17.83;14.65;;;17.70;99.90;;;;;;5040355;28;20076;-82
2023/08/02 06:22:24;;;;;;;20.20;14.13;;;17.70;99.90;;;;;;5043322;28;20025;-82
2023/08/02 06:24:50;;;;;;;16.95;13.95;;;17.70;99.90;;;;;;5048071;28;20049;-82
2023/08/02 06:27:16;;;;;;;16.33;12.82;;;17.60;99.90;;;;;;5040784;28;20070;-83
2023/08/02 06:29:41;;;;;;;17.70;13.38;;;17.70;99.90;;;;;;5035770;28;20037;-83
2023/08/02 06:32:07;;;;;;;17.38;12.52;;;17.70;99.90;;;;;;5040270;28;20017;-82
2023/08/02 06:34:32;;;;;;;16.85;12.50;;;17.90;99.90;;;;;;5032796;28;20395;-83
2023/08/02 06:36:58;;;;;;;13.80;11.30;;;18.10;99.90;;;;;;5044797;28;20029;-83
2023/08/02 06:39:24;;;;;;;16.52;13.07;;;18.30;99.90;;;;;;5048317;28;20033;-83
2023/08/02 06:41:49;;;;;;;24.15;13.77;;;18.40;99.90;;;;;;5047266;28;20076;-83
2023/08/02 06:44:15;;;;;;;17.25;12.98;;;18.30;99.90;;;;;;5048729;28;20025;-82
2023/08/02 06:46:41;;;;;;;18.25;13.23;;;18.30;99.90;;;;;;5046228;28;20033;-82
2023/08/02 06:49:06;;;;;;;14.68;11.35;;;18.60;99.90;;;;;;5044530;28;20099;-82
2023/08/02 06:51:33;;;;;;;13.20;10.48;;;18.90;99.90;;;;;;5044621;28;20029;-83
2023/08/02 06:53:59;;;;;;;13.63;9.98;;;19.10;99.90;;;;;;5049908;28;20032;-81
2023/08/02 06:56:25;;;;;;;14.15;9.57;;;19.30;99.90;;;;;;5051722;28;20021;-81
2023/08/02 06:58:50;;;;;;;13.90;9.98;;;19.30;99.90;;;;;;5051360;28;20036;-82
2023/08/02 07:01:18;;;;;;;15.63;10.60;;;19.60;99.90;;;;;;5041997;28;20021;-82
2023/08/02 07:03:45;;;;;;;17.23;10.88;;;19.60;99.90;;;;;;5049002;28;20118;-81
2023/08/02 07:06:13;;;;;;;17.48;10.52;;;19.50;99.90;;;;;;5042747;28;20045;-80
2023/08/02 07:08:40;;;;;;;13.23;9.18;;;19.60;99.90;;;;;;5049549;28;20033;-80
2023/08/02 07:11:06;;;;;;;11.75;8.57;;;19.50;99.90;;;;;;5048572;28;20017;-81
2023/08/02 07:13:32;;;;;;;17.02;9.13;;;19.60;99.90;;;;;;5045671;28;20024;-81
2023/08/02 07:15:59;;;;;;;14.65;9.38;;;19.60;99.90;;;;;;5037081;28;20048;-81
2023/08/02 07:18:24;;;;;;;12.13;8.63;;;19.50;99.90;;;;;;5035427;28;20383;-81
2023/08/02 07:20:50;;;;;;;13.15;7.80;;;19.40;99.90;;;;;;5037207;28;20018;-82
2023/08/02 07:23:15;;;;;;;11.90;8.88;;;19.50;99.90;;;;;;5035932;28;20025;-80
2023/08/02 07:25:41;;;;;;;13.45;8.02;;;19.70;99.90;;;;;;5043320;28;20498;-80
2023/08/02 07:28:07;;;;;;;10.43;7.95;;;19.80;99.90;;;;;;5050532;28;20067;-81
2023/08/02 07:30:32;;;;;;;13.75;9.38;;;19.80;99.90;;;;;;5037447;28;20064;-81
2023/08/02 07:32:58;;;;;;;12.05;8.45;;;19.90;99.90;;;;;;5050812;28;20097;-82
2023/08/02 07:35:24;;;;;;;8.52;6.97;;;20.20;99.90;;;;;;5049840;28;20495;-81
2023/08/02 07:37:49;;;;;;;11.25;8.23;;;20.60;99.90;;;;;;5050858;28;20032;-81
2023/08/02 07:40:15;;;;;;;13.75;8.52;;;20.90;99.90;;;;;;5050803;28;20041;-81
2023/08/02 07:42:40;;;;;;;11.98;8.52;;;20.90;99.90;;;;;;5046213;28;20108;-81
2023/08/02 07:45:08;;;;;;;11.55;8.85;;;21.00;99.90;;;;;;5049052;28;20049;-81
2023/08/02 07:47:35;;;;;;;14.23;9.38;;;21.00;99.90;;;;;;5048385;28;20485;-81
2023/08/02 07:50:01;;;;;;;18.38;10.60;;;20.90;99.90;;;;;;5044707;28;20045;-80
2023/08/02 07:52:26;;;;;;;15.18;10.02;;;20.80;99.90;;;;;;5042859;28;20486;-80
2023/08/02 07:54:55;;;;;;;13.60;9.07;;;20.90;99.90;;;;;;5048573;28;20036;-81
2023/08/02 07:57:25;;;;;;;17.88;10.38;;;21.20;99.90;;;;;;5048579;28;20029;-81
2023/08/02 07:59:50;;;;;;;16.10;9.45;;;21.50;99.90;;;;;;5042712;28;20041;-81
2023/08/02 08:02:16;;;;;;;11.95;8.57;;;21.50;96.80;;;;;;5049367;28;20434;-81
2023/08/02 08:04:42;;;;;;;13.13;7.80;;;21.80;99.40;;;;;;5046677;28;20050;-80
2023/08/02 08:07:07;;;;;;;11.20;6.70;;;21.80;98.60;;;;;;5049449;28;20083;-81
2023/08/02 08:09:34;;;;;;;6.85;5.10;;;21.90;93.40;;;;;;5049113;28;20493;-81
2023/08/02 08:12:03;;;;;;;6.70;4.80;;;22.00;92.90;;;;;;5048004;28;20017;-80
2023/08/02 08:14:29;;;;;;;5.38;2.83;;;22.20;90.60;;;;;;5047472;28;20457;-79
2023/08/02 08:16:56;;;;;;;3.95;3.33;;;22.20;85.00;;;;;;5041836;28;20030;-80
2023/08/02 08:19:22;;;;;;;5.68;2.53;;;22.50;87.60;;;;;;5047294;28;20363;-80
2023/08/02 08:21:48;;;;;;;5.25;2.65;;;22.70;79.80;;;;;;5047835;28;20108;-80
2023/08/02 08:24:13;;;;;;;5.28;3.13;;;22.80;77.40;;;;;;5040140;28;20112;-80
2023/08/02 08:26:39;;;;;;;2.75;2.55;;;23.00;76.80;;;;;;5040243;28;20057;-80
2023/08/02 08:29:04;;;;;;;2.92;2.50;;;23.20;76.30;;;;;;5043825;28;20043;-81
2023/08/02 08:31:30;;;;;;;5.25;3.25;;;23.30;76.50;;;;;;5051827;28;20036;-80
2023/08/02 08:33:55;;;;;;;3.20;2.90;;;23.20;72.10;;;;;;5051297;28;20446;-82
2023/08/02 08:36:21;;;;;;;2.88;2.50;;;23.30;72.80;;;;;;5048710;28;20037;-84
2023/08/02 08:38:47;;;;;;;3.05;2.58;;;23.10;73.50;;;;;;5046548;28;20048;-84
2023/08/02 08:41:15;;;;;;;3.05;2.70;;;23.20;72.50;;;;;;5041767;28;20411;-84
2023/08/02 08:43:41;;;;;;;3.40;2.67;;;23.00;71.80;;;;;;5039854;28;20025;-83
2023/08/02 08:46:07;;;;;;;3.00;2.60;;;22.90;72.00;;;;;;5048684;28;20074;-83
2023/08/02 08:48:36;;;;;;;4.32;2.58;;;23.10;72.40;;;;;;5036883;28;20040;-84
2023/08/02 08:51:03;;;;;;;4.78;2.92;;;23.20;70.90;;;;;;5045672;28;20033;-83
2023/08/02 08:53:36;;;;;;;2.97;2.67;;;23.10;70.20;;;;;;5039241;28;20079;-83
2023/08/02 08:56:04;;;;;;;3.30;2.50;;;22.80;69.80;;;;;;5038521;28;20036;-83
2023/08/02 08:58:32;;;;;;;3.20;2.90;;;22.80;71.70;;;;;;5052970;28;20032;-82
2023/08/02 09:00:58;;;;;;;4.60;2.70;;;23.10;75.60;;;;;;5051718;28;20076;-85
2023/08/02 09:03:25;;;;;;;3.33;2.90;;;23.20;73.70;;;;;;5052465;28;20497;-84
2023/08/02 09:05:51;;;;;;;2.88;2.67;;;23.30;73.60;;;;;;5050459;28;20040;-84
2023/08/02 09:08:17;;;;;;;3.85;3.15;;;23.40;70.40;;;;;;5048029;28;20580;-84
2023/08/02 09:10:43;;;;;;;2.58;2.35;;;23.70;71.90;;;;;;5045101;28;20048;-84
2023/08/02 09:13:25;;;;;;;2.92;2.63;;;23.90;69.90;;;;;;5043234;28;20032;-84
2023/08/02 09:16:12;;;;;;;6.72;2.40;;;24.30;69.90;;;;;;5046206;28;20452;-84
2023/08/02 09:18:40;;;;;;;2.88;2.63;;;24.50;67.20;;;;;;5052777;28;20044;-83
2023/08/02 09:21:07;;;;;;;2.35;2.15;;;24.40;67.40;;;;;;5042650;28;20038;-84
2023/08/02 09:23:33;;;;;;;2.83;2.60;;;24.20;66.60;;;;;;5050818;28;20025;-83
2023/08/02 09:26:19;;;;;;;4.68;2.80;;;23.40;64.30;;;;;;5039088;28;20402;-83
2023/08/02 09:29:01;;;;;;;4.45;2.42;;;23.00;65.60;;;;;;5047447;28;20383;-83
2023/08/02 09:31:28;;;;;;;5.38;2.55;;;22.80;69.20;;;;;;5034146;28;20483;-82
2023/08/02 09:33:54;;;;;;;2.72;2.53;;;22.80;71.50;;;;;;5036556;28;20021;-81
2023/08/02 09:36:29;;;;;;;3.35;3.03;;;22.70;72.10;;;;;;5033156;28;20947;-83
2023/08/02 09:38:56;;;;;;;3.58;2.40;;;22.80;71.40;;;;;;5040467;28;20482;-82
2023/08/02 09:41:23;;;;;;;2.70;2.50;;;22.90;71.90;;;;;;5049311;28;20502;-83
2023/08/02 09:43:51;;;;;;;4.75;2.78;;;23.00;69.80;;;;;;5045419;28;20020;-82
2023/08/02 09:46:33;;;;;;;2.72;2.53;;;23.10;67.70;;;;;;5050907;28;20041;-82
2023/08/02 09:49:00;;;;;;;5.10;2.40;;;23.10;70.10;;;;;;5050287;28;20436;-81
2023/08/02 09:51:42;;;;;;;2.92;2.42;;;23.10;68.10;;;;;;5051330;28;20478;-81
2023/08/02 09:54:09;;;;;;;4.60;2.55;;;22.90;66.20;;;;;;5054203;28;20030;-81
2023/08/02 09:56:36;;;;;;;5.38;3.03;;;22.70;66.00;;;;;;5040781;28;20089;-81
2023/08/02 09:59:03;;;;;;;3.40;2.40;;;22.80;68.30;;;;;;5038002;28;20021;-80
2023/08/02 10:01:30;;;;;;;2.80;2.35;;;22.90;70.40;;;;;;5030653;28;20406;-81
2023/08/02 10:03:59;;;;;;;2.30;2.10;;;22.80;68.10;;;;;;5043985;28;20075;-82
2023/08/02 10:06:29;;;;;;;4.65;2.85;;;22.70;69.30;;;;;;5048033;28;20045;-82
2023/08/02 10:09:04;;;;;;;2.55;2.35;;;22.50;70.50;;;;;;5040565;28;20080;-81
2023/08/02 10:11:34;;;;;;;3.58;2.50;;;22.20;68.90;;;;;;5049237;28;20088;-81
2023/08/02 10:14:01;;;;;;;2.53;1.90;;;22.50;70.90;;;;;;5052193;28;20017;-81
2023/08/02 10:16:28;;;;;;;2.30;2.00;;;22.50;68.70;;;;;;5052322;28;20037;-80
2023/08/02 10:18:54;;;;;;;3.22;2.00;;;22.80;68.50;;;;;;5049833;28;20032;-82
2023/08/02 10:21:21;;;;;;;4.13;2.20;;;23.00;68.10;;;;;;5051135;28;20104;-81
2023/08/02 10:23:49;;;;;;;2.10;1.77;;;23.00;65.30;;;;;;5052037;28;20071;-81
2023/08/02 10:26:15;;;;;;;2.40;2.10;;;23.30;64.70;;;;;;5044197;28;20030;-82
2023/08/02 10:28:42;;;;;;;4.60;1.85;;;23.40;65.20;;;;;;5042162;28;20076;-82
2023/08/02 10:31:10;;;;;;;3.55;1.63;;;23.40;65.40;;;;;;5047820;28;20032;-83
2023/08/02 10:33:35;;;;;;;2.13;1.90;;;23.60;65.70;;;;;;5041997;28;20427;-82
2023/08/02 10:36:03;;;;;;;4.13;1.60;;;23.70;65.30;;;;;;5038851;28;20052;-82
2023/08/02 10:38:38;;;;;;;4.05;1.90;;;23.70;65.20;;;;;;5042453;28;20051;-83
2023/08/02 10:41:09;;;;;;;3.55;1.90;;;23.90;65.30;;;;;;5039834;28;20032;-82
2023/08/02 10:43:55;;;;;;;2.30;2.15;;;23.80;63.40;;;;;;5040789;28;20072;-82
2023/08/02 10:46:25;;;;;;;2.40;1.50;;;24.10;65.60;;;;;;5043418;28;20596;-83
2023/08/02 10:48:51;;;;;;;2.13;1.63;;;24.10;65.30;;;;;;5050190;28;20021;-83
2023/08/02 10:51:34;;;;;;;1.88;1.58;;;24.50;66.40;;;;;;5047956;28;20017;-82
2023/08/02 10:54:19;;;;;;;2.38;2.13;;;24.50;62.70;;;;;;5050537;28;20478;-82
2023/08/02 10:56:51;;;;;;;3.33;1.65;;;24.90;64.70;;;;;;5055636;28;20024;-82
2023/08/02 10:59:40;;;;;;;2.83;1.30;;;25.00;62.50;;;;;;5049990;28;20029;-83
2023/08/02 11:02:07;;;;;;;3.25;1.42;;;25.00;58.40;;;;;;5049544;28;20013;-81
2023/08/02 11:04:37;;;;;;;4.72;1.30;;;25.00;58.00;;;;;;5050005;28;20090;-81
2023/08/02 11:07:16;;;;;;;2.22;1.63;;;25.00;58.70;;;;;;5051074;28;20060;-83
2023/08/02 11:09:42;;;;;;;2.28;1.48;;;24.90;57.70;;;;;;5042272;28;20044;-83
2023/08/02 11:12:12;;;;;;;3.85;1.30;;;25.10;59.10;;;;;;5048508;28;20022;-80
2023/08/02 11:14:38;;;;;;;2.22;1.50;;;25.20;59.10;;;;;;5044096;28;20044;-80
2023/08/02 11:17:04;;;;;;;1.65;1.13;;;24.80;57.60;;;;;;5045897;28;20028;-80
2023/08/02 11:19:31;;;;;;;1.95;1.63;;;24.60;57.60;;;;;;5044890;28;20512;-79
2023/08/02 11:21:59;;;;;;;2.75;1.50;;;24.60;58.90;;;;;;5044627;28;20025;-80
2023/08/02 11:24:25;;;;;;;2.15;1.23;;;24.90;60.80;;;;;;5047634;28;20016;-80
2023/08/02 11:26:58;;;;;;;1.30;1.00;;;24.90;58.40;;;;;;5044462;28;20041;-79
2023/08/02 11:29:25;;;;;;;1.58;1.48;;;24.60;58.10;;;;;;5037352;28;20036;-80
2023/08/02 11:31:54;;;;;;;2.75;1.17;;;24.40;58.60;;;;;;5050007;28;20429;-79
2023/08/02 11:34:20;;;;;;;1.63;1.15;;;24.30;59.20;;;;;;5053669;28;20017;-80
2023/08/02 11:36:47;;;;;;;2.47;1.58;;;24.00;57.50;;;;;;5052320;28;20370;-80
2023/08/02 11:39:18;;;;;;;3.05;1.13;;;24.10;59.60;;;;;;5051971;28;20033;-81
2023/08/02 11:41:43;;;;;;;1.05;1.05;;;24.30;60.50;;;;;;5050240;28;20020;-78
2023/08/02 11:44:17;;;;;;;4.55;1.15;;;24.50;59.70;;;;;;5044762;28;20512;-79
2023/08/02 11:46:44;;;;;;;1.38;1.27;;;24.70;58.80;;;;;;5039458;28;20033;-81
2023/08/02 11:49:09;;;;;;;1.83;1.00;;;24.90;58.30;;;;;;5036459;28;20037;-80
2023/08/02 11:51:41;;;;;;;6.18;0.90;;;25.20;57.10;;;;;;5041726;28;20025;-80
2023/08/02 11:54:08;;;;;;;1.80;0.70;;;25.30;57.60;;;;;;5050938;28;20026;-80
2023/08/02 11:56:34;;;;;;;1.30;0.90;;;25.40;54.80;;;;;;5055533;28;20538;-81
2023/08/02 11:59:00;;;;;;;0.75;0.75;;;25.40;52.80;;;;;;5051120;28;20132;-80
2023/08/02 12:01:26;;;;;;;3.40;0.90;;;25.50;54.30;;;;;;5041323;28;20025;-80
2023/08/02 12:04:00;;;;;;;1.08;0.68;;;25.60;54.50;;;;;;5046224;28;20060;-80
2023/08/02 12:06:27;;;;;;;2.72;1.10;;;25.60;52.90;;;;;;5046795;28;20379;-82
2023/08/02 12:08:57;;;;;;;2.15;0.95;;;25.60;54.10;;;;;;5051385;28;20029;-82
2023/08/02 12:11:26;;;;;;;1.90;0.98;;;25.80;54.30;;;;;;5053152;28;20021;-82
2023/08/02 12:13:55;;;;;;;2.08;0.75;;;25.90;53.80;;;;;;5051064;28;20394;-82
2023/08/02 12:16:20;;;;;;;1.02;0.90;;;25.60;51.10;;;;;;5053958;28;20100;-82
2023/08/02 12:18:54;;;;;;;1.52;0.90;;;25.70;52.70;;;;;;5054499;28;20108;-83
2023/08/02 12:21:21;;;;;;;1.85;0.60;;;25.50;53.10;;;;;;5051152;28;20108;-82
2023/08/02 12:23:47;;;;;;;1.48;0.90;;;25.50;52.70;;;;;;5063137;28;20489;-82
2023/08/02 12:26:33;;;;;;;1.30;0.80;;;25.60;52.90;;;;;;5048535;28;20042;-82
2023/08/02 12:29:01;;;;;;;2.00;0.70;;;25.70;52.00;;;;;;5043301;28;20441;-82
2023/08/02 12:31:27;;;;;;;2.97;1.27;;;25.70;52.50;;;;;;5053167;28;20475;-82
2023/08/02 12:33:53;;;;;;;0.70;0.70;;;25.60;53.30;;;;;;5051970;28;20021;-82
2023/08/02 12:36:28;;;;;;;2.33;0.90;;;25.50;53.10;;;;;;5054078;28;20020;-82